sensor_id;sensor_type;location;lat;lon;timestamp;pressure;altitude;pressure_sealevel;temperature;humidity
76124;BME280;65173;48.066;20.976;2023-07-31T00:10:59;99985.81;;;18.80;100.00
76124;BME280;65173;48.066;20.976;2023-07-31T00:14:02;99983.03;;;18.73;100.00
76124;BME280;65173;48.066;20.976;2023-07-31T00:17:05;99991.53;;;18.75;100.00
76124;BME280;65173;48.066;20.976;2023-07-31T00:20:08;99982.31;;;18.80;100.00
76124;BME280;65173;48.066;20.976;2023-07-31T00:23:11;99994.28;;;18.82;100.00
76124;BME280;65173;48.066;20.976;2023-07-31T00:26:13;99989.63;;;18.76;100.00
76124;BME280;65173;48.066;20.976;2023-07-31T00:29:16;99986.19;;;18.82;100.00
76124;BME280;65173;48.066;20.976;2023-07-31T00:32:19;99993.13;;;18.83;100.00
76124;BME280;65173;48.066;20.976;2023-07-31T00:35:21;99985.47;;;18.89;100.00
76124;BME280;65173;48.066;20.976;2023-07-31T00:38:25;99979.28;;;18.88;100.00
76124;BME280;65173;48.066;20.976;2023-07-31T00:41:27;99973.09;;;18.88;100.00
76124;BME280;65173;48.066;20.976;2023-07-31T00:44:30;99975.81;;;18.88;100.00
76124;BME280;65173;48.066;20.976;2023-07-31T00:47:33;99963.00;;;18.74;100.00
76124;BME280;65173;48.066;20.976;2023-07-31T00:50:36;99979.91;;;18.67;100.00
76124;BME280;65173;48.066;20.976;2023-07-31T00:53:39;99967.94;;;18.65;100.00
76124;BME280;65173;48.066;20.976;2023-07-31T00:56:46;99967.56;;;18.66;100.00
76124;BME280;65173;48.066;20.976;2023-07-31T00:59:50;99962.44;;;18.54;100.00
76124;BME280;65173;48.066;20.976;2023-07-31T01:02:53;99974.75;;;18.52;100.00
76124;BME280;65173;48.066;20.976;2023-07-31T01:06:22;99973.84;;;18.37;100.00
76124;BME280;65173;48.066;20.976;2023-07-31T01:09:47;99981.91;;;18.33;100.00
76124;BME280;65173;48.066;20.976;2023-07-31T01:12:53;99983.78;;;18.29;100.00
76124;BME280;65173;48.066;20.976;2023-07-31T01:15:59;99995.28;;;18.19;100.00
76124;BME280;65173;48.066;20.976;2023-07-31T01:19:02;99991.09;;;18.25;100.00
76124;BME280;65173;48.066;20.976;2023-07-31T01:22:39;99991.78;;;18.19;100.00
76124;BME280;65173;48.066;20.976;2023-07-31T01:29:01;99996.69;;;18.06;100.00
76124;BME280;65173;48.066;20.976;2023-07-31T01:32:06;99985.53;;;18.08;100.00
76124;BME280;65173;48.066;20.976;2023-07-31T01:35:10;99987.09;;;18.09;100.00
76124;BME280;65173;48.066;20.976;2023-07-31T01:38:12;99970.84;;;18.05;100.00
76124;BME280;65173;48.066;20.976;2023-07-31T01:41:17;99972.28;;;17.95;100.00
76124;BME280;65173;48.066;20.976;2023-07-31T01:44:20;99970.38;;;17.96;100.00
76124;BME280;65173;48.066;20.976;2023-07-31T01:47:23;99969.50;;;17.85;100.00
76124;BME280;65173;48.066;20.976;2023-07-31T01:50:26;99971.72;;;17.79;100.00
76124;BME280;65173;48.066;20.976;2023-07-31T01:53:32;99967.19;;;17.87;100.00
76124;BME280;65173;48.066;20.976;2023-07-31T01:56:36;99965.19;;;17.80;100.00
76124;BME280;65173;48.066;20.976;2023-07-31T01:59:39;99968.22;;;17.75;100.00
76124;BME280;65173;48.066;20.976;2023-07-31T02:02:42;99972.81;;;17.75;100.00
76124;BME280;65173;48.066;20.976;2023-07-31T02:05:46;99975.81;;;17.66;100.00
76124;BME280;65173;48.066;20.976;2023-07-31T02:08:49;99983.06;;;17.62;100.00
76124;BME280;65173;48.066;20.976;2023-07-31T02:11:52;99989.16;;;17.59;100.00
76124;BME280;65173;48.066;20.976;2023-07-31T02:14:55;99984.91;;;17.54;100.00
76124;BME280;65173;48.066;20.976;2023-07-31T02:17:58;99991.34;;;17.46;100.00
76124;BME280;65173;48.066;20.976;2023-07-31T02:21:01;99980.50;;;17.43;100.00
76124;BME280;65173;48.066;20.976;2023-07-31T02:24:04;99985.91;;;17.43;100.00
76124;BME280;65173;48.066;20.976;2023-07-31T02:27:06;99984.25;;;17.34;100.00
76124;BME280;65173;48.066;20.976;2023-07-31T02:30:10;99985.81;;;17.35;100.00
76124;BME280;65173;48.066;20.976;2023-07-31T02:33:14;99983.19;;;17.43;100.00
76124;BME280;65173;48.066;20.976;2023-07-31T02:36:17;99984.81;;;17.47;100.00
76124;BME280;65173;48.066;20.976;2023-07-31T02:39:20;99982.41;;;17.42;100.00
76124;BME280;65173;48.066;20.976;2023-07-31T02:42:23;99988.50;;;17.35;100.00
76124;BME280;65173;48.066;20.976;2023-07-31T02:45:26;99987.03;;;17.42;100.00
76124;BME280;65173;48.066;20.976;2023-07-31T02:48:28;99989.19;;;17.29;100.00
76124;BME280;65173;48.066;20.976;2023-07-31T02:51:31;99990.31;;;17.28;100.00
76124;BME280;65173;48.066;20.976;2023-07-31T02:54:34;99986.50;;;17.29;100.00
76124;BME280;65173;48.066;20.976;2023-07-31T02:57:37;99988.22;;;17.14;100.00
76124;BME280;65173;48.066;20.976;2023-07-31T03:00:43;99991.34;;;17.20;100.00
76124;BME280;65173;48.066;20.976;2023-07-31T03:03:46;99997.78;;;17.12;100.00
76124;BME280;65173;48.066;20.976;2023-07-31T03:06:49;99990.38;;;17.05;100.00
76124;BME280;65173;48.066;20.976;2023-07-31T03:09:51;99995.69;;;16.98;100.00
76124;BME280;65173;48.066;20.976;2023-07-31T03:12:55;99996.13;;;17.04;100.00
76124;BME280;65173;48.066;20.976;2023-07-31T03:15:58;99993.91;;;17.09;100.00
76124;BME280;65173;48.066;20.976;2023-07-31T03:19:01;99999.72;;;17.11;100.00
76124;BME280;65173;48.066;20.976;2023-07-31T03:22:04;99995.75;;;17.02;100.00
76124;BME280;65173;48.066;20.976;2023-07-31T03:25:07;100005.31;;;16.99;100.00
76124;BME280;65173;48.066;20.976;2023-07-31T03:28:12;100000.66;;;16.96;100.00
76124;BME280;65173;48.066;20.976;2023-07-31T03:31:15;100006.88;;;17.00;100.00
76124;BME280;65173;48.066;20.976;2023-07-31T03:34:18;100004.63;;;17.06;100.00
76124;BME280;65173;48.066;20.976;2023-07-31T03:37:21;100008.09;;;17.06;100.00
76124;BME280;65173;48.066;20.976;2023-07-31T03:40:23;100007.25;;;17.02;100.00
76124;BME280;65173;48.066;20.976;2023-07-31T03:43:27;100010.72;;;17.02;100.00
76124;BME280;65173;48.066;20.976;2023-07-31T03:46:29;100005.03;;;17.08;100.00
76124;BME280;65173;48.066;20.976;2023-07-31T03:49:32;100011.94;;;17.05;100.00
76124;BME280;65173;48.066;20.976;2023-07-31T03:52:35;100017.00;;;17.10;100.00
76124;BME280;65173;48.066;20.976;2023-07-31T03:55:38;100015.16;;;17.14;100.00
76124;BME280;65173;48.066;20.976;2023-07-31T03:58:40;100024.06;;;17.18;100.00
76124;BME280;65173;48.066;20.976;2023-07-31T04:01:43;100024.50;;;17.24;100.00
76124;BME280;65173;48.066;20.976;2023-07-31T04:04:45;100021.50;;;17.29;100.00
76124;BME280;65173;48.066;20.976;2023-07-31T04:07:48;100020.09;;;17.39;100.00
76124;BME280;65173;48.066;20.976;2023-07-31T04:10:51;100015.16;;;17.44;100.00
76124;BME280;65173;48.066;20.976;2023-07-31T04:13:54;100010.25;;;17.50;100.00
76124;BME280;65173;48.066;20.976;2023-07-31T04:16:57;100018.47;;;17.60;100.00
76124;BME280;65173;48.066;20.976;2023-07-31T04:20:00;100021.22;;;17.64;100.00
76124;BME280;65173;48.066;20.976;2023-07-31T04:23:03;100017.50;;;17.72;100.00
76124;BME280;65173;48.066;20.976;2023-07-31T04:26:06;100032.09;;;17.71;100.00
76124;BME280;65173;48.066;20.976;2023-07-31T04:29:08;100038.31;;;17.75;100.00
76124;BME280;65173;48.066;20.976;2023-07-31T04:32:11;100039.63;;;17.88;100.00
76124;BME280;65173;48.066;20.976;2023-07-31T04:35:13;100039.28;;;17.90;100.00
76124;BME280;65173;48.066;20.976;2023-07-31T04:38:16;100028.19;;;17.98;100.00
76124;BME280;65173;48.066;20.976;2023-07-31T04:41:19;100029.75;;;17.99;100.00
76124;BME280;65173;48.066;20.976;2023-07-31T04:44:22;100036.72;;;18.04;100.00
76124;BME280;65173;48.066;20.976;2023-07-31T04:47:24;100032.59;;;18.14;100.00
76124;BME280;65173;48.066;20.976;2023-07-31T04:50:27;100033.41;;;18.18;100.00
76124;BME280;65173;48.066;20.976;2023-07-31T04:53:30;100034.19;;;18.18;100.00
76124;BME280;65173;48.066;20.976;2023-07-31T04:56:32;100033.91;;;18.30;100.00
76124;BME280;65173;48.066;20.976;2023-07-31T04:59:35;100045.56;;;18.38;100.00
76124;BME280;65173;48.066;20.976;2023-07-31T05:02:40;100045.03;;;18.59;100.00
76124;BME280;65173;48.066;20.976;2023-07-31T05:05:42;100046.50;;;18.56;100.00
76124;BME280;65173;48.066;20.976;2023-07-31T05:08:45;100038.56;;;18.70;100.00
76124;BME280;65173;48.066;20.976;2023-07-31T05:11:48;100043.28;;;18.81;100.00
76124;BME280;65173;48.066;20.976;2023-07-31T05:14:51;100035.56;;;18.83;100.00
76124;BME280;65173;48.066;20.976;2023-07-31T05:17:53;100039.44;;;18.85;100.00
76124;BME280;65173;48.066;20.976;2023-07-31T05:20:56;100046.50;;;18.97;100.00
76124;BME280;65173;48.066;20.976;2023-07-31T05:23:59;100047.00;;;19.13;100.00
76124;BME280;65173;48.066;20.976;2023-07-31T05:27:02;100051.97;;;19.07;100.00
76124;BME280;65173;48.066;20.976;2023-07-31T05:30:05;100062.50;;;19.23;100.00
76124;BME280;65173;48.066;20.976;2023-07-31T05:33:08;100063.69;;;19.29;100.00
76124;BME280;65173;48.066;20.976;2023-07-31T05:36:13;100064.50;;;19.37;100.00
76124;BME280;65173;48.066;20.976;2023-07-31T05:39:15;100060.38;;;19.54;100.00
76124;BME280;65173;48.066;20.976;2023-07-31T05:42:18;100074.75;;;19.72;100.00
76124;BME280;65173;48.066;20.976;2023-07-31T05:45:21;100069.00;;;19.77;100.00
76124;BME280;65173;48.066;20.976;2023-07-31T05:48:24;100072.53;;;19.92;100.00
76124;BME280;65173;48.066;20.976;2023-07-31T05:51:27;100077.59;;;20.00;100.00
76124;BME280;65173;48.066;20.976;2023-07-31T05:54:31;100074.97;;;20.22;100.00
76124;BME280;65173;48.066;20.976;2023-07-31T05:57:34;100078.44;;;20.26;100.00
76124;BME280;65173;48.066;20.976;2023-07-31T06:00:36;100079.31;;;20.55;100.00
76124;BME280;65173;48.066;20.976;2023-07-31T06:03:39;100082.06;;;20.72;100.00
76124;BME280;65173;48.066;20.976;2023-07-31T06:06:42;100070.84;;;20.77;100.00
76124;BME280;65173;48.066;20.976;2023-07-31T06:09:44;100077.03;;;20.85;100.00
76124;BME280;65173;48.066;20.976;2023-07-31T06:12:47;100069.28;;;21.05;100.00
76124;BME280;65173;48.066;20.976;2023-07-31T06:15:50;100068.50;;;21.08;100.00
76124;BME280;65173;48.066;20.976;2023-07-31T06:18:53;100075.88;;;21.25;100.00
76124;BME280;65173;48.066;20.976;2023-07-31T06:21:55;100071.16;;;21.51;100.00
76124;BME280;65173;48.066;20.976;2023-07-31T06:24:58;100070.34;;;21.68;100.00
76124;BME280;65173;48.066;20.976;2023-07-31T06:28:01;100072.16;;;22.06;100.00
76124;BME280;65173;48.066;20.976;2023-07-31T06:31:03;100058.09;;;22.22;100.00
76124;BME280;65173;48.066;20.976;2023-07-31T06:34:06;100057.53;;;22.52;100.00
76124;BME280;65173;48.066;20.976;2023-07-31T06:37:09;100053.84;;;22.83;100.00
76124;BME280;65173;48.066;20.976;2023-07-31T06:40:11;100054.44;;;23.02;100.00
76124;BME280;65173;48.066;20.976;2023-07-31T06:43:14;100061.25;;;23.62;100.00
76124;BME280;65173;48.066;20.976;2023-07-31T06:46:17;100049.75;;;24.11;100.00
76124;BME280;65173;48.066;20.976;2023-07-31T06:49:19;100049.09;;;24.81;100.00
76124;BME280;65173;48.066;20.976;2023-07-31T06:52:22;100048.47;;;25.20;100.00
76124;BME280;65173;48.066;20.976;2023-07-31T06:55:25;100049.09;;;25.47;92.69
76124;BME280;65173;48.066;20.976;2023-07-31T06:58:28;100048.56;;;25.96;93.84
76124;BME280;65173;48.066;20.976;2023-07-31T07:01:30;100042.81;;;26.26;89.13
76124;BME280;65173;48.066;20.976;2023-07-31T07:04:33;100045.00;;;26.51;90.38
76124;BME280;65173;48.066;20.976;2023-07-31T07:07:36;100051.91;;;27.04;87.05
76124;BME280;65173;48.066;20.976;2023-07-31T07:10:38;100045.34;;;27.30;82.40
76124;BME280;65173;48.066;20.976;2023-07-31T07:13:41;100036.75;;;27.99;74.79
76124;BME280;65173;48.066;20.976;2023-07-31T07:16:44;100035.53;;;28.00;70.44
76124;BME280;65173;48.066;20.976;2023-07-31T07:19:47;100038.69;;;27.73;71.72
76124;BME280;65173;48.066;20.976;2023-07-31T07:22:50;100042.03;;;28.06;71.79
76124;BME280;65173;48.066;20.976;2023-07-31T07:25:52;100039.81;;;27.76;71.22
76124;BME280;65173;48.066;20.976;2023-07-31T07:28:55;100041.66;;;27.37;73.16
76124;BME280;65173;48.066;20.976;2023-07-31T07:32:01;100042.84;;;27.78;70.50
76124;BME280;65173;48.066;20.976;2023-07-31T07:35:04;100047.81;;;27.54;69.45
76124;BME280;65173;48.066;20.976;2023-07-31T07:38:06;100034.94;;;28.21;67.91
76124;BME280;65173;48.066;20.976;2023-07-31T07:41:09;100042.00;;;29.17;66.93
76124;BME280;65173;48.066;20.976;2023-07-31T07:44:13;100037.81;;;29.47;65.41
76124;BME280;65173;48.066;20.976;2023-07-31T07:47:15;100033.13;;;29.56;65.12
76124;BME280;65173;48.066;20.976;2023-07-31T07:50:18;100037.19;;;29.43;61.54
76124;BME280;65173;48.066;20.976;2023-07-31T07:53:21;100035.72;;;28.94;60.15
76124;BME280;65173;48.066;20.976;2023-07-31T07:56:25;100035.38;;;28.92;60.66
76124;BME280;65173;48.066;20.976;2023-07-31T07:59:28;100033.38;;;28.08;63.07
76124;BME280;65173;48.066;20.976;2023-07-31T08:02:31;100034.97;;;28.68;61.37
76124;BME280;65173;48.066;20.976;2023-07-31T08:05:33;100028.16;;;29.42;60.55
76124;BME280;65173;48.066;20.976;2023-07-31T08:08:37;100025.56;;;30.31;57.73
76124;BME280;65173;48.066;20.976;2023-07-31T08:11:40;100020.81;;;30.90;53.57
76124;BME280;65173;48.066;20.976;2023-07-31T08:14:43;100019.69;;;30.02;55.06
76124;BME280;65173;48.066;20.976;2023-07-31T08:17:45;100028.00;;;29.24;54.61
76124;BME280;65173;48.066;20.976;2023-07-31T08:20:48;100033.09;;;30.00;55.58
76124;BME280;65173;48.066;20.976;2023-07-31T08:23:51;100019.94;;;30.35;56.27
76124;BME280;65173;48.066;20.976;2023-07-31T08:26:54;100026.06;;;29.99;54.64
76124;BME280;65173;48.066;20.976;2023-07-31T08:29:56;100026.81;;;29.68;55.39
76124;BME280;65173;48.066;20.976;2023-07-31T08:32:59;100023.53;;;29.52;53.40
76124;BME280;65173;48.066;20.976;2023-07-31T08:36:03;100021.00;;;29.23;56.14
76124;BME280;65173;48.066;20.976;2023-07-31T08:39:06;100018.31;;;28.63;59.04
76124;BME280;65173;48.066;20.976;2023-07-31T08:42:09;100014.22;;;28.20;58.62
76124;BME280;65173;48.066;20.976;2023-07-31T08:45:16;100021.91;;;28.73;58.26
76124;BME280;65173;48.066;20.976;2023-07-31T08:48:21;100014.41;;;28.39;57.96
76124;BME280;65173;48.066;20.976;2023-07-31T08:51:24;100018.56;;;27.92;64.26
76124;BME280;65173;48.066;20.976;2023-07-31T08:54:27;100016.72;;;27.19;66.08
76124;BME280;65173;48.066;20.976;2023-07-31T08:57:38;100018.50;;;26.32;73.15
76124;BME280;65173;48.066;20.976;2023-07-31T09:00:42;100013.13;;;27.22;71.16
76124;BME280;65173;48.066;20.976;2023-07-31T09:03:47;100022.06;;;26.77;70.55
76124;BME280;65173;48.066;20.976;2023-07-31T09:06:52;100023.19;;;26.96;70.34
76124;BME280;65173;48.066;20.976;2023-07-31T09:09:59;100018.06;;;26.82;70.28
76124;BME280;65173;48.066;20.976;2023-07-31T09:13:02;100021.13;;;26.35;70.67
76124;BME280;65173;48.066;20.976;2023-07-31T09:16:05;100020.47;;;26.31;69.18
76124;BME280;65173;48.066;20.976;2023-07-31T09:19:08;100023.97;;;26.32;67.28
76124;BME280;65173;48.066;20.976;2023-07-31T09:22:10;100019.31;;;26.28;69.57
76124;BME280;65173;48.066;20.976;2023-07-31T09:25:20;100017.56;;;26.38;68.21
76124;BME280;65173;48.066;20.976;2023-07-31T09:28:31;100017.75;;;26.47;71.13
76124;BME280;65173;48.066;20.976;2023-07-31T09:31:41;100025.34;;;26.04;70.51
76124;BME280;65173;48.066;20.976;2023-07-31T09:34:44;100023.50;;;25.81;69.37
76124;BME280;65173;48.066;20.976;2023-07-31T09:37:56;100013.47;;;25.94;68.58
76124;BME280;65173;48.066;20.976;2023-07-31T09:40:59;100010.16;;;26.03;68.25
76124;BME280;65173;48.066;20.976;2023-07-31T09:44:02;100014.16;;;26.67;69.48
76124;BME280;65173;48.066;20.976;2023-07-31T09:47:05;100016.13;;;26.66;68.49
76124;BME280;65173;48.066;20.976;2023-07-31T09:50:07;100012.13;;;27.16;68.10
76124;BME280;65173;48.066;20.976;2023-07-31T09:53:11;100011.78;;;28.95;58.63
76124;BME280;65173;48.066;20.976;2023-07-31T09:56:14;100003.66;;;29.79;55.25
76124;BME280;65173;48.066;20.976;2023-07-31T09:59:19;100002.31;;;31.36;52.94
76124;BME280;65173;48.066;20.976;2023-07-31T10:02:26;100005.00;;;31.64;49.85
76124;BME280;65173;48.066;20.976;2023-07-31T10:05:50;100004.34;;;30.32;56.49
76124;BME280;65173;48.066;20.976;2023-07-31T10:08:54;100006.09;;;29.77;56.41
76124;BME280;65173;48.066;20.976;2023-07-31T10:12:00;100007.78;;;29.30;56.82
76124;BME280;65173;48.066;20.976;2023-07-31T10:15:08;99998.84;;;29.39;55.75
76124;BME280;65173;48.066;20.976;2023-07-31T10:18:12;100008.25;;;30.03;52.29
76124;BME280;65173;48.066;20.976;2023-07-31T10:21:15;99999.97;;;30.44;53.70
76124;BME280;65173;48.066;20.976;2023-07-31T10:24:18;99999.28;;;28.94;58.06
76124;BME280;65173;48.066;20.976;2023-07-31T10:27:21;100003.19;;;30.02;55.87
76124;BME280;65173;48.066;20.976;2023-07-31T10:30:28;100002.25;;;29.43;56.02
76124;BME280;65173;48.066;20.976;2023-07-31T10:33:32;100000.94;;;28.79;57.06
76124;BME280;65173;48.066;20.976;2023-07-31T10:36:35;99993.19;;;28.64;59.11
76124;BME280;65173;48.066;20.976;2023-07-31T10:39:38;99993.16;;;29.33;54.69
76124;BME280;65173;48.066;20.976;2023-07-31T10:45:48;99994.91;;;29.18;57.93
76124;BME280;65173;48.066;20.976;2023-07-31T10:48:58;99998.06;;;28.48;58.00
76124;BME280;65173;48.066;20.976;2023-07-31T10:52:03;99985.16;;;28.70;59.39
76124;BME280;65173;48.066;20.976;2023-07-31T10:55:31;99981.91;;;30.33;56.64
76124;BME280;65173;48.066;20.976;2023-07-31T10:58:34;99975.72;;;31.15;52.40
76124;BME280;65173;48.066;20.976;2023-07-31T11:01:57;99976.25;;;30.37;52.32
76124;BME280;65173;48.066;20.976;2023-07-31T11:05:10;99971.19;;;31.63;52.07
76124;BME280;65173;48.066;20.976;2023-07-31T11:08:45;99972.81;;;32.12;49.38
76124;BME280;65173;48.066;20.976;2023-07-31T11:11:48;99964.25;;;31.17;49.55
76124;BME280;65173;48.066;20.976;2023-07-31T11:14:56;99967.72;;;30.44;50.24
76124;BME280;65173;48.066;20.976;2023-07-31T11:18:00;99949.53;;;31.01;49.62
76124;BME280;65173;48.066;20.976;2023-07-31T11:21:06;99951.59;;;31.70;49.21
76124;BME280;65173;48.066;20.976;2023-07-31T11:24:08;99948.59;;;32.16;46.45
76124;BME280;65173;48.066;20.976;2023-07-31T11:27:11;99943.94;;;31.65;48.66
76124;BME280;65173;48.066;20.976;2023-07-31T11:30:13;99941.78;;;30.72;51.36
76124;BME280;65173;48.066;20.976;2023-07-31T11:33:16;99948.47;;;30.44;50.00
76124;BME280;65173;48.066;20.976;2023-07-31T11:36:20;99956.47;;;30.02;51.05
76124;BME280;65173;48.066;20.976;2023-07-31T11:39:23;99960.75;;;29.72;52.77
76124;BME280;65173;48.066;20.976;2023-07-31T11:42:26;99962.91;;;29.24;54.26
76124;BME280;65173;48.066;20.976;2023-07-31T11:45:29;99949.59;;;29.76;53.12
76124;BME280;65173;48.066;20.976;2023-07-31T11:48:34;99955.06;;;28.79;54.29
76124;BME280;65173;48.066;20.976;2023-07-31T11:51:38;99951.03;;;27.98;56.25
76124;BME280;65173;48.066;20.976;2023-07-31T11:54:41;99946.69;;;30.01;52.16
76124;BME280;65173;48.066;20.976;2023-07-31T11:57:45;99946.16;;;29.93;51.54
76124;BME280;65173;48.066;20.976;2023-07-31T12:00:49;99937.63;;;30.86;51.25
76124;BME280;65173;48.066;20.976;2023-07-31T12:03:52;99936.78;;;29.73;54.43
76124;BME280;65173;48.066;20.976;2023-07-31T12:06:55;99935.19;;;29.53;55.21
76124;BME280;65173;48.066;20.976;2023-07-31T12:10:00;99932.06;;;29.42;54.16
76124;BME280;65173;48.066;20.976;2023-07-31T12:13:05;99926.91;;;31.25;51.72
76124;BME280;65173;48.066;20.976;2023-07-31T12:16:08;99931.22;;;30.89;48.34
76124;BME280;65173;48.066;20.976;2023-07-31T12:19:11;99918.94;;;30.99;48.07
76124;BME280;65173;48.066;20.976;2023-07-31T12:22:15;99924.97;;;32.24;47.49
76124;BME280;65173;48.066;20.976;2023-07-31T12:25:17;99923.47;;;32.23;48.14
76124;BME280;65173;48.066;20.976;2023-07-31T12:28:22;99925.66;;;33.26;47.71
76124;BME280;65173;48.066;20.976;2023-07-31T12:31:27;99912.50;;;32.05;49.35
76124;BME280;65173;48.066;20.976;2023-07-31T12:34:31;99907.09;;;31.87;50.54
76124;BME280;65173;48.066;20.976;2023-07-31T12:37:44;99917.16;;;33.00;48.36
76124;BME280;65173;48.066;20.976;2023-07-31T12:40:47;99911.38;;;33.42;45.50
76124;BME280;65173;48.066;20.976;2023-07-31T12:43:49;99899.34;;;34.15;46.04
76124;BME280;65173;48.066;20.976;2023-07-31T12:46:52;99892.19;;;33.53;42.85
76124;BME280;65173;48.066;20.976;2023-07-31T12:49:54;99895.34;;;32.49;45.05
76124;BME280;65173;48.066;20.976;2023-07-31T12:52:57;99893.47;;;32.55;47.27
76124;BME280;65173;48.066;20.976;2023-07-31T12:56:00;99886.59;;;33.33;45.99
76124;BME280;65173;48.066;20.976;2023-07-31T12:59:03;99870.13;;;33.09;45.27
76124;BME280;65173;48.066;20.976;2023-07-31T13:02:06;99859.84;;;33.94;43.23
76124;BME280;65173;48.066;20.976;2023-07-31T13:05:09;99865.53;;;33.21;43.06
76124;BME280;65173;48.066;20.976;2023-07-31T13:08:12;99865.38;;;33.09;42.78
76124;BME280;65173;48.066;20.976;2023-07-31T13:11:18;99866.78;;;32.90;43.64
76124;BME280;65173;48.066;20.976;2023-07-31T13:14:20;99863.09;;;32.93;44.32
76124;BME280;65173;48.066;20.976;2023-07-31T13:17:23;99865.19;;;31.40;46.01
76124;BME280;65173;48.066;20.976;2023-07-31T13:20:26;99857.16;;;31.00;47.60
76124;BME280;65173;48.066;20.976;2023-07-31T13:23:29;99855.72;;;30.45;48.97
76124;BME280;65173;48.066;20.976;2023-07-31T13:26:32;99857.41;;;29.75;50.15
76124;BME280;65173;48.066;20.976;2023-07-31T13:29:35;99845.81;;;29.80;51.55
76124;BME280;65173;48.066;20.976;2023-07-31T13:32:37;99844.22;;;30.46;48.46
76124;BME280;65173;48.066;20.976;2023-07-31T13:35:41;99848.56;;;31.59;46.81
76124;BME280;65173;48.066;20.976;2023-07-31T13:38:44;99843.69;;;31.87;44.97
76124;BME280;65173;48.066;20.976;2023-07-31T13:41:47;99845.28;;;31.46;46.28
76124;BME280;65173;48.066;20.976;2023-07-31T13:44:49;99854.00;;;30.84;47.82
76124;BME280;65173;48.066;20.976;2023-07-31T13:47:52;99848.50;;;30.47;47.98
76124;BME280;65173;48.066;20.976;2023-07-31T13:50:55;99842.63;;;31.00;49.24
76124;BME280;65173;48.066;20.976;2023-07-31T13:53:57;99842.91;;;30.60;49.23
76124;BME280;65173;48.066;20.976;2023-07-31T13:57:00;99845.63;;;30.23;51.06
76124;BME280;65173;48.066;20.976;2023-07-31T14:00:03;99837.59;;;29.70;53.69
76124;BME280;65173;48.066;20.976;2023-07-31T14:03:06;99836.72;;;29.43;53.93
76124;BME280;65173;48.066;20.976;2023-07-31T14:06:10;99834.56;;;29.38;54.36
76124;BME280;65173;48.066;20.976;2023-07-31T14:09:12;99830.03;;;28.91;53.26
76124;BME280;65173;48.066;20.976;2023-07-31T14:12:17;99837.56;;;28.56;55.38
76124;BME280;65173;48.066;20.976;2023-07-31T14:15:41;99826.06;;;28.70;55.14
76124;BME280;65173;48.066;20.976;2023-07-31T14:18:45;99831.69;;;28.66;56.83
76124;BME280;65173;48.066;20.976;2023-07-31T14:21:48;99837.53;;;28.34;55.12
76124;BME280;65173;48.066;20.976;2023-07-31T14:25:11;99831.16;;;28.37;55.69
76124;BME280;65173;48.066;20.976;2023-07-31T14:28:13;99824.47;;;28.04;57.30
76124;BME280;65173;48.066;20.976;2023-07-31T14:31:16;99822.03;;;29.36;56.38
76124;BME280;65173;48.066;20.976;2023-07-31T14:34:19;99824.81;;;29.46;54.48
76124;BME280;65173;48.066;20.976;2023-07-31T14:37:22;99822.53;;;29.44;52.54
76124;BME280;65173;48.066;20.976;2023-07-31T14:40:24;99822.84;;;30.32;52.24
76124;BME280;65173;48.066;20.976;2023-07-31T14:43:27;99815.25;;;31.05;49.84
76124;BME280;65173;48.066;20.976;2023-07-31T14:46:29;99814.88;;;30.52;48.75
76124;BME280;65173;48.066;20.976;2023-07-31T14:49:32;99804.06;;;30.39;48.78
76124;BME280;65173;48.066;20.976;2023-07-31T14:52:34;99799.09;;;30.89;48.91
76124;BME280;65173;48.066;20.976;2023-07-31T14:55:37;99805.91;;;30.61;50.04
76124;BME280;65173;48.066;20.976;2023-07-31T14:58:40;99797.47;;;29.91;51.42
76124;BME280;65173;48.066;20.976;2023-07-31T15:01:42;99794.22;;;29.25;52.77
76124;BME280;65173;48.066;20.976;2023-07-31T15:04:45;99801.72;;;28.94;54.85
76124;BME280;65173;48.066;20.976;2023-07-31T15:07:48;99798.28;;;28.59;57.09
76124;BME280;65173;48.066;20.976;2023-07-31T15:10:50;99799.59;;;28.98;57.25
76124;BME280;65173;48.066;20.976;2023-07-31T15:13:59;99801.66;;;28.63;58.37
76124;BME280;65173;48.066;20.976;2023-07-31T15:17:02;99799.88;;;28.25;57.57
76124;BME280;65173;48.066;20.976;2023-07-31T15:20:05;99794.25;;;28.16;59.52
76124;BME280;65173;48.066;20.976;2023-07-31T15:23:08;99797.13;;;28.13;60.64
76124;BME280;65173;48.066;20.976;2023-07-31T15:26:11;99799.72;;;27.94;62.76
76124;BME280;65173;48.066;20.976;2023-07-31T15:29:14;99790.94;;;27.99;62.90
76124;BME280;65173;48.066;20.976;2023-07-31T15:32:22;99798.84;;;27.85;60.68
76124;BME280;65173;48.066;20.976;2023-07-31T15:35:26;99795.50;;;27.55;61.07
76124;BME280;65173;48.066;20.976;2023-07-31T15:38:29;99794.41;;;27.65;62.95
76124;BME280;65173;48.066;20.976;2023-07-31T15:41:31;99790.78;;;27.69;64.74
76124;BME280;65173;48.066;20.976;2023-07-31T15:44:34;99781.69;;;27.46;64.83
76124;BME280;65173;48.066;20.976;2023-07-31T15:47:37;99783.91;;;27.26;67.50
76124;BME280;65173;48.066;20.976;2023-07-31T15:50:40;99788.75;;;27.22;64.98
76124;BME280;65173;48.066;20.976;2023-07-31T15:53:43;99782.50;;;27.21;66.28
76124;BME280;65173;48.066;20.976;2023-07-31T15:56:45;99782.25;;;27.28;65.38
76124;BME280;65173;48.066;20.976;2023-07-31T15:59:48;99786.09;;;27.31;66.76
76124;BME280;65173;48.066;20.976;2023-07-31T16:02:51;99783.81;;;27.17;69.24
76124;BME280;65173;48.066;20.976;2023-07-31T16:05:53;99783.13;;;27.00;69.46